Time;durP1;ratioP1;P1;durP2;ratioP2;P2;SDS_P1;SDS_P2;PMS_P1;PMS_P2;Temp;Humidity;BMP_temperature;BMP_pressure;BME280_temperature;BME280_humidity;BME280_pressure;Samples;Min_cycle;Max_cycle;Signal;HPM_P1;HPM_P2
2021/11/10 00:00:11;;;;;;;9.37;5.60;;;5.40;99.90;;;;;;5060726;28;20894;-60
2021/11/10 00:02:41;;;;;;;9.30;6.07;;;5.40;99.90;;;;;;5059984;28;20218;-60
2021/11/10 00:05:09;;;;;;;6.73;5.80;;;5.50;99.90;;;;;;5054113;28;20230;-60
2021/11/10 00:07:40;;;;;;;9.47;5.97;;;5.40;99.90;;;;;;5058626;28;20206;-61
2021/11/10 00:10:10;;;;;;;12.17;5.67;;;5.50;99.90;;;;;;5046358;28;20203;-60
2021/11/10 00:12:37;;;;;;;11.77;6.97;;;5.40;99.90;;;;;;5063031;28;20252;-61
2021/11/10 00:15:05;;;;;;;12.03;5.97;;;5.40;99.90;;;;;;5060369;28;20246;-60
2021/11/10 00:17:32;;;;;;;10.10;5.83;;;5.40;99.90;;;;;;5063831;28;20194;-60
2021/11/10 00:19:59;;;;;;;11.10;5.73;;;5.40;99.90;;;;;;5056406;28;20678;-60
2021/11/10 00:22:25;;;;;;;8.90;5.70;;;5.40;99.90;;;;;;5062346;28;20225;-60
2021/11/10 00:24:52;;;;;;;6.13;5.33;;;5.40;99.90;;;;;;5048581;28;20272;-60
2021/11/10 00:27:21;;;;;;;7.73;5.53;;;5.40;99.90;;;;;;5061263;28;20209;-60
2021/11/10 00:29:48;;;;;;;14.83;5.87;;;5.40;99.90;;;;;;5064164;28;20199;-60
2021/11/10 00:32:15;;;;;;;8.10;5.57;;;5.40;99.90;;;;;;5060041;28;20191;-60
2021/11/10 00:34:41;;;;;;;12.20;5.47;;;5.40;99.90;;;;;;5057876;28;20206;-60
2021/11/10 00:37:10;;;;;;;7.13;5.57;;;5.40;99.90;;;;;;5060152;28;20252;-60
2021/11/10 00:39:37;;;;;;;12.20;6.07;;;5.40;99.90;;;;;;5064214;28;20203;-60
2021/11/10 00:42:04;;;;;;;10.17;5.13;;;5.40;99.90;;;;;;5046110;28;20225;-60
2021/11/10 00:44:32;;;;;;;7.97;5.77;;;5.40;99.90;;;;;;5063471;28;20209;-60
2021/11/10 00:46:59;;;;;;;6.87;5.33;;;5.40;99.90;;;;;;5061382;28;20651;-60
2021/11/10 00:49:26;;;;;;;8.27;5.67;;;5.40;99.90;;;;;;5057621;28;20203;-61
2021/11/10 00:51:52;;;;;;;13.73;5.93;;;5.40;99.90;;;;;;5055928;28;20193;-60
2021/11/10 00:54:19;;;;;;;8.80;5.13;;;5.40;99.90;;;;;;5061197;28;20276;-61
2021/11/10 00:56:46;;;;;;;11.63;5.13;;;5.40;99.90;;;;;;5049215;28;20238;-60
2021/11/10 00:59:12;;;;;;;7.13;5.10;;;5.50;99.90;;;;;;5059727;28;20191;-60
2021/11/10 01:01:41;;;;;;;7.43;5.27;;;5.40;99.90;;;;;;5061538;28;20222;-60
2021/11/10 01:04:08;;;;;;;8.13;4.77;;;5.50;99.90;;;;;;5053469;28;20198;-61
2021/11/10 01:06:35;;;;;;;7.57;5.63;;;5.40;99.90;;;;;;5062177;28;20648;-60
2021/11/10 01:09:02;;;;;;;7.07;5.00;;;5.40;99.90;;;;;;5059564;28;20230;-60
2021/11/10 01:11:29;;;;;;;6.13;5.10;;;5.30;99.90;;;;;;5048270;28;21003;-61
2021/11/10 01:13:55;;;;;;;7.13;5.33;;;5.30;99.90;;;;;;5061606;28;20202;-60
2021/11/10 01:16:23;;;;;;;9.07;4.90;;;5.30;99.90;;;;;;5061027;28;20301;-60
2021/11/10 01:18:51;;;;;;;9.40;5.60;;;5.20;99.90;;;;;;5061691;28;20207;-60
2021/11/10 01:21:21;;;;;;;7.77;5.37;;;5.30;99.90;;;;;;5055550;28;20222;-60
2021/11/10 01:23:48;;;;;;;11.40;5.20;;;5.20;99.90;;;;;;5061687;28;20579;-60
2021/11/10 01:26:15;;;;;;;10.33;5.43;;;5.10;99.90;;;;;;5043702;28;21120;-60
2021/11/10 01:28:42;;;;;;;7.97;5.30;;;5.10;99.90;;;;;;5061745;28;20205;-61
2021/11/10 01:31:10;;;;;;;10.10;4.80;;;5.20;99.90;;;;;;5057752;28;20198;-60
2021/11/10 01:33:38;;;;;;;9.23;5.57;;;5.10;99.90;;;;;;5061797;28;20198;-60
2021/11/10 01:36:08;;;;;;;9.43;5.67;;;5.10;99.90;;;;;;5053126;28;20230;-60
2021/11/10 01:38:35;;;;;;;6.70;4.97;;;5.10;99.90;;;;;;5055369;28;20662;-60
2021/11/10 01:41:02;;;;;;;10.30;5.23;;;5.10;99.90;;;;;;5065932;28;20220;-60
2021/11/10 01:43:32;;;;;;;9.03;5.17;;;5.10;99.90;;;;;;5040958;28;20888;-60
2021/11/10 01:46:00;;;;;;;7.63;4.97;;;5.10;99.90;;;;;;5059138;28;20226;-60
2021/11/10 01:48:30;;;;;;;7.73;5.47;;;5.10;99.90;;;;;;5061460;28;20206;-61
2021/11/10 01:51:00;;;;;;;8.87;5.00;;;5.10;99.90;;;;;;5054519;28;20209;-60
2021/11/10 01:53:28;;;;;;;7.50;5.13;;;5.10;99.90;;;;;;5059726;28;20411;-60
2021/11/10 01:55:54;;;;;;;8.40;5.47;;;5.10;99.90;;;;;;5061694;28;20651;-59
2021/11/10 01:58:22;;;;;;;8.63;4.77;;;5.00;99.90;;;;;;5044605;28;20210;-60
2021/11/10 02:00:49;;;;;;;9.40;5.00;;;5.10;99.90;;;;;;5061080;28;20679;-60
2021/11/10 02:03:17;;;;;;;11.10;5.40;;;5.10;99.90;;;;;;5058073;28;20229;-60
2021/11/10 02:05:50;;;;;;;6.67;4.70;;;5.10;99.90;;;;;;5064118;28;20353;-61
2021/11/10 02:08:32;;;;;;;8.57;5.37;;;5.00;99.90;;;;;;5064268;28;20298;-61
2021/11/10 02:11:01;;;;;;;6.20;4.33;;;5.00;99.90;;;;;;5062949;28;20642;-60
2021/11/10 02:13:29;;;;;;;7.90;4.87;;;5.10;99.90;;;;;;5049674;28;20269;-60
2021/11/10 02:15:57;;;;;;;7.33;4.80;;;5.00;99.90;;;;;;5063212;28;20222;-60
2021/11/10 02:18:24;;;;;;;12.73;5.23;;;5.00;99.90;;;;;;5063855;28;20186;-60
2021/11/10 02:20:58;;;;;;;9.00;4.97;;;5.00;99.90;;;;;;5063518;28;20210;-59
2021/11/10 02:23:25;;;;;;;7.90;4.93;;;5.00;99.90;;;;;;5059270;28;20222;-60
2021/11/10 02:25:57;;;;;;;8.23;5.17;;;5.00;99.90;;;;;;5054465;28;20630;-60
2021/11/10 02:28:24;;;;;;;8.53;5.40;;;4.90;99.90;;;;;;5064623;28;20232;-60
2021/11/10 02:30:51;;;;;;;7.30;4.90;;;4.90;99.90;;;;;;5045388;28;20221;-60
2021/11/10 02:33:27;;;;;;;10.00;4.73;;;4.90;99.90;;;;;;5064145;28;20205;-60
2021/11/10 02:36:00;;;;;;;4.50;4.10;;;4.90;99.90;;;;;;5059371;28;20317;-60
2021/11/10 02:38:27;;;;;;;5.47;4.17;;;4.90;99.90;;;;;;5055072;28;20206;-61
2021/11/10 02:40:56;;;;;;;7.50;4.50;;;4.90;99.90;;;;;;5061140;28;20907;-61
2021/11/10 02:43:23;;;;;;;7.93;4.80;;;4.90;99.90;;;;;;5064653;28;20222;-61
2021/11/10 02:45:50;;;;;;;8.50;4.77;;;4.80;99.90;;;;;;5047657;28;20248;-60
2021/11/10 02:48:17;;;;;;;13.47;5.37;;;4.70;99.90;;;;;;5065873;28;20213;-61
2021/11/10 02:50:44;;;;;;;10.20;4.70;;;4.60;99.90;;;;;;5057603;28;20202;-60
2021/11/10 02:53:12;;;;;;;5.33;4.83;;;4.70;99.90;;;;;;5054993;28;20649;-61
2021/11/10 02:55:39;;;;;;;5.70;4.60;;;4.70;99.90;;;;;;5048998;28;20273;-60
2021/11/10 02:58:06;;;;;;;5.13;4.17;;;4.70;99.90;;;;;;5063795;28;20198;-61
2021/11/10 03:00:34;;;;;;;7.17;5.03;;;4.70;99.90;;;;;;5057749;28;20570;-60
2021/11/10 03:03:02;;;;;;;8.00;4.90;;;4.70;99.90;;;;;;5049504;28;20214;-61
2021/11/10 03:05:29;;;;;;;5.03;4.53;;;4.70;99.90;;;;;;5050522;28;20219;-60
2021/11/10 03:07:58;;;;;;;6.73;4.43;;;4.60;99.90;;;;;;5055541;28;21009;-60
2021/11/10 03:10:26;;;;;;;7.70;4.43;;;4.60;99.90;;;;;;5065769;28;20285;-60
2021/11/10 03:12:55;;;;;;;7.73;4.53;;;4.60;99.90;;;;;;5060174;28;20206;-60
2021/11/10 03:15:26;;;;;;;8.20;4.60;;;4.60;99.90;;;;;;5064265;28;20227;-61
2021/11/10 03:17:54;;;;;;;7.20;4.40;;;4.60;99.90;;;;;;5044161;28;20234;-61
2021/11/10 03:20:21;;;;;;;9.40;4.57;;;4.60;99.90;;;;;;5064284;28;20206;-61
2021/11/10 03:22:48;;;;;;;10.73;4.83;;;4.50;99.90;;;;;;5060325;28;20302;-61
2021/11/10 03:25:15;;;;;;;7.73;4.70;;;4.50;99.90;;;;;;5058787;28;20624;-60
2021/11/10 03:27:45;;;;;;;6.97;4.77;;;4.50;99.90;;;;;;5061841;28;20610;-60
2021/11/10 03:30:14;;;;;;;7.53;5.00;;;4.50;99.90;;;;;;5063652;28;20206;-61
2021/11/10 03:32:56;;;;;;;7.47;4.90;;;4.40;99.90;;;;;;5045426;28;20222;-60
2021/11/10 03:35:24;;;;;;;8.80;5.30;;;4.40;99.90;;;;;;5063664;28;20699;-60
2021/11/10 03:37:51;;;;;;;8.03;5.20;;;4.30;99.90;;;;;;5059513;28;20671;-60
2021/11/10 03:40:21;;;;;;;9.57;5.97;;;4.30;99.90;;;;;;5059108;28;20202;-61
2021/11/10 03:42:53;;;;;;;8.40;5.07;;;4.30;99.90;;;;;;5059564;28;20691;-60
2021/11/10 03:45:24;;;;;;;8.03;4.80;;;4.30;99.90;;;;;;5063758;28;20252;-60
2021/11/10 03:47:52;;;;;;;6.33;4.57;;;4.20;99.90;;;;;;5045645;28;20206;-60
2021/11/10 03:50:19;;;;;;;8.07;4.47;;;4.20;99.90;;;;;;5059626;28;20325;-60
2021/11/10 03:52:45;;;;;;;6.57;4.33;;;4.10;99.90;;;;;;5061804;28;20222;-61
2021/11/10 03:55:12;;;;;;;9.57;4.97;;;4.10;99.90;;;;;;5057582;28;20610;-60
2021/11/10 03:57:43;;;;;;;7.37;5.20;;;4.10;99.90;;;;;;5061406;28;20198;-60
2021/11/10 04:00:12;;;;;;;11.37;5.47;;;4.00;99.90;;;;;;5063366;28;20213;-61
2021/11/10 04:02:42;;;;;;;8.00;5.03;;;4.00;99.90;;;;;;5054350;28;20302;-61
2021/11/10 04:05:12;;;;;;;9.27;5.40;;;3.90;99.90;;;;;;5059322;28;20228;-61
2021/11/10 04:07:40;;;;;;;11.07;5.47;;;3.90;99.90;;;;;;5061585;28;20205;-60
2021/11/10 04:10:08;;;;;;;9.70;5.40;;;3.80;99.90;;;;;;5056766;28;20207;-61
2021/11/10 04:12:35;;;;;;;9.73;5.83;;;3.80;99.90;;;;;;5063615;28;20215;-60
2021/11/10 04:15:02;;;;;;;7.43;5.43;;;3.90;99.90;;;;;;5060293;28;20356;-60
2021/11/10 04:17:30;;;;;;;8.13;5.07;;;3.80;99.90;;;;;;5062923;28;20210;-61
2021/11/10 04:19:57;;;;;;;8.77;5.00;;;3.90;99.90;;;;;;5045783;28;20290;-60
2021/11/10 04:22:23;;;;;;;10.23;5.20;;;3.90;99.90;;;;;;5062220;28;20222;-60
2021/11/10 04:24:51;;;;;;;9.00;5.57;;;3.80;99.90;;;;;;5054085;28;20206;-61
2021/11/10 04:27:19;;;;;;;11.97;6.17;;;3.80;99.90;;;;;;5062502;28;20230;-60
2021/11/10 04:29:47;;;;;;;9.23;5.90;;;3.80;99.90;;;;;;5059822;28;20202;-60
2021/11/10 04:32:15;;;;;;;8.37;4.97;;;3.80;99.90;;;;;;5061878;28;20212;-60
2021/11/10 04:34:45;;;;;;;7.67;5.33;;;3.80;99.90;;;;;;5045768;28;20206;-60
2021/11/10 04:37:14;;;;;;;10.20;5.87;;;3.90;99.90;;;;;;5053861;28;20198;-61
2021/11/10 04:39:41;;;;;;;9.33;5.73;;;3.90;99.90;;;;;;5058393;28;20384;-60
2021/11/10 04:42:10;;;;;;;9.23;4.90;;;3.90;99.90;;;;;;5057598;28;20902;-60
2021/11/10 04:44:39;;;;;;;10.23;4.90;;;3.90;99.90;;;;;;5060521;28;20229;-60
2021/11/10 04:47:07;;;;;;;7.40;4.67;;;3.90;99.90;;;;;;5041071;28;20975;-60
2021/11/10 04:49:35;;;;;;;8.87;5.20;;;3.90;99.90;;;;;;5059338;28;20202;-61
2021/11/10 04:52:04;;;;;;;10.90;5.30;;;3.90;99.90;;;;;;5049228;28;20195;-60
2021/11/10 04:54:31;;;;;;;10.30;5.03;;;3.90;99.90;;;;;;5062802;28;20202;-61
2021/11/10 04:57:03;;;;;;;8.43;5.53;;;3.90;99.90;;;;;;5054039;28;20303;-61
2021/11/10 04:59:31;;;;;;;10.60;4.97;;;3.90;99.90;;;;;;5062466;28;20617;-61
2021/11/10 05:02:23;;;;;;;9.40;5.00;;;3.90;99.90;;;;;;5050690;28;20229;-60
2021/11/10 05:04:50;;;;;;;8.30;5.17;;;3.80;99.90;;;;;;5061276;28;20202;-60
2021/11/10 05:07:20;;;;;;;8.87;4.77;;;3.80;99.90;;;;;;5045805;28;20309;-60
2021/11/10 05:09:47;;;;;;;8.47;5.37;;;3.80;99.90;;;;;;5060469;28;20226;-61
2021/11/10 05:12:15;;;;;;;11.70;5.10;;;3.80;99.90;;;;;;5056212;28;20206;-61
2021/11/10 05:14:43;;;;;;;5.97;4.93;;;3.80;99.90;;;;;;5059372;28;20218;-60
2021/11/10 05:17:09;;;;;;;6.87;4.63;;;3.80;99.90;;;;;;5060845;28;20226;-61
2021/11/10 05:19:36;;;;;;;9.07;4.70;;;3.80;99.90;;;;;;5056311;28;20193;-61
2021/11/10 05:22:03;;;;;;;8.60;4.60;;;3.80;99.90;;;;;;5047516;28;20202;-61
2021/11/10 05:24:32;;;;;;;7.30;4.80;;;3.80;99.90;;;;;;5058519;28;20218;-60
2021/11/10 05:26:59;;;;;;;6.50;5.27;;;3.80;99.90;;;;;;5058576;28;20206;-61
2021/11/10 05:29:26;;;;;;;8.07;5.13;;;3.80;99.90;;;;;;5059970;28;20195;-60
2021/11/10 05:31:52;;;;;;;8.80;4.80;;;3.80;99.90;;;;;;5062339;28;20199;-60
2021/11/10 05:34:19;;;;;;;9.37;5.23;;;3.80;99.90;;;;;;5060172;28;20202;-60
2021/11/10 05:36:46;;;;;;;9.63;5.60;;;3.80;99.90;;;;;;5046540;28;20226;-60
2021/11/10 05:39:12;;;;;;;7.37;4.53;;;3.90;99.90;;;;;;5062211;28;20551;-60
2021/11/10 05:41:40;;;;;;;9.83;5.27;;;3.90;99.90;;;;;;5054371;28;20386;-60
2021/11/10 05:44:07;;;;;;;6.90;4.27;;;3.90;99.90;;;;;;5059042;28;20219;-61
2021/11/10 05:46:34;;;;;;;7.17;5.40;;;3.90;99.90;;;;;;5050963;28;20229;-60
2021/11/10 05:49:01;;;;;;;6.70;5.17;;;3.80;99.90;;;;;;5053234;28;20890;-61
2021/11/10 05:51:27;;;;;;;6.43;4.77;;;3.80;99.90;;;;;;5060801;28;20200;-60
2021/11/10 05:53:54;;;;;;;9.03;5.90;;;3.70;99.90;;;;;;5044090;28;20191;-60
2021/11/10 05:56:22;;;;;;;7.37;4.67;;;3.70;99.90;;;;;;5056642;28;20301;-60
2021/11/10 05:58:52;;;;;;;8.17;4.77;;;3.70;99.90;;;;;;5051937;28;20722;-60
2021/11/10 06:01:19;;;;;;;6.93;5.20;;;3.70;99.90;;;;;;5062564;28;20198;-60
2021/11/10 06:03:45;;;;;;;5.10;4.50;;;3.70;99.90;;;;;;5060130;28;20222;-60
2021/11/10 06:06:12;;;;;;;11.93;5.50;;;3.70;99.90;;;;;;5054104;28;20211;-60
2021/11/10 06:08:39;;;;;;;8.57;4.87;;;3.80;99.90;;;;;;5046796;28;20198;-61
2021/11/10 06:11:06;;;;;;;6.70;4.80;;;3.80;99.90;;;;;;5054612;28;20202;-60
2021/11/10 06:13:33;;;;;;;7.70;5.23;;;3.80;99.90;;;;;;5048973;28;20191;-60
2021/11/10 06:16:01;;;;;;;7.37;5.10;;;3.80;99.90;;;;;;5056433;28;20223;-60
2021/11/10 06:18:29;;;;;;;8.57;5.50;;;3.90;99.90;;;;;;5053463;28;20191;-61
2021/11/10 06:20:56;;;;;;;9.13;5.67;;;3.90;99.90;;;;;;5061592;28;20202;-60
2021/11/10 06:23:22;;;;;;;6.97;5.00;;;3.90;99.90;;;;;;5041664;28;20222;-60
2021/11/10 06:25:49;;;;;;;10.13;4.97;;;3.90;99.90;;;;;;5061346;28;20697;-61
2021/11/10 06:28:16;;;;;;;8.10;4.73;;;3.90;99.90;;;;;;5049050;28;20210;-61
2021/11/10 06:30:43;;;;;;;7.73;4.67;;;3.90;99.90;;;;;;5062688;28;20195;-60
2021/11/10 06:33:11;;;;;;;12.33;5.80;;;3.90;99.90;;;;;;5053587;28;20190;-60
2021/11/10 06:35:37;;;;;;;9.53;6.20;;;3.90;99.90;;;;;;5056602;28;20231;-60
2021/11/10 06:38:04;;;;;;;9.40;5.23;;;4.00;99.90;;;;;;5039378;28;20207;-60
2021/11/10 06:40:31;;;;;;;8.20;5.20;;;4.00;99.90;;;;;;5055568;28;20228;-61
2021/11/10 06:42:58;;;;;;;6.53;4.70;;;4.00;99.90;;;;;;5058749;28;20194;-60
2021/11/10 06:45:25;;;;;;;8.27;5.00;;;4.00;99.90;;;;;;5057495;28;20360;-60
2021/11/10 06:47:51;;;;;;;11.53;5.47;;;3.90;99.90;;;;;;5061957;28;20222;-60
2021/11/10 06:50:19;;;;;;;7.70;4.87;;;3.80;99.90;;;;;;5058573;28;20905;-58
2021/11/10 06:52:46;;;;;;;12.00;5.13;;;3.80;99.90;;;;;;5054576;28;20200;-53
2021/11/10 06:55:13;;;;;;;5.90;5.30;;;3.80;99.90;;;;;;5039927;28;20211;-57
2021/11/10 06:57:40;;;;;;;9.27;5.20;;;3.80;99.90;;;;;;5061266;28;20559;-57
2021/11/10 07:00:09;;;;;;;8.43;5.47;;;3.80;99.90;;;;;;5064347;28;20211;-57
2021/11/10 07:02:36;;;;;;;9.50;4.97;;;3.80;99.90;;;;;;5063080;28;20194;-57
2021/11/10 07:05:03;;;;;;;9.67;5.27;;;3.80;99.90;;;;;;5059527;28;20215;-56
2021/11/10 07:07:31;;;;;;;7.30;4.77;;;3.90;99.90;;;;;;5058042;28;20211;-57
2021/11/10 07:09:58;;;;;;;9.23;5.37;;;3.90;99.90;;;;;;5052501;28;20206;-56
2021/11/10 07:12:24;;;;;;;8.70;5.30;;;3.90;99.90;;;;;;5069507;28;20280;-56
2021/11/10 07:14:51;;;;;;;7.27;5.00;;;3.90;99.90;;;;;;5064045;28;20277;-57
2021/11/10 07:17:18;;;;;;;11.93;5.40;;;4.00;99.90;;;;;;5054628;28;20828;-55
2021/11/10 07:19:45;;;;;;;11.50;5.43;;;4.00;99.90;;;;;;5057733;28;20210;-56
2021/11/10 07:22:12;;;;;;;10.90;6.10;;;4.10;99.90;;;;;;5061588;28;20315;-55
2021/11/10 07:24:40;;;;;;;9.23;5.90;;;4.20;99.90;;;;;;5044329;28;20215;-59
2021/11/10 07:27:07;;;;;;;8.00;5.17;;;4.30;99.90;;;;;;5045636;28;20218;-64
2021/11/10 07:29:34;;;;;;;9.33;5.40;;;4.50;99.90;;;;;;5060636;28;20199;-63
2021/11/10 07:32:00;;;;;;;10.00;5.77;;;4.50;99.90;;;;;;5062008;28;20301;-62
2021/11/10 07:34:27;;;;;;;12.17;6.60;;;4.60;99.90;;;;;;5056582;28;20892;-62
2021/11/10 07:36:54;;;;;;;9.07;6.13;;;4.70;99.90;;;;;;5052848;28;20231;-62
2021/11/10 07:39:23;;;;;;;12.17;6.43;;;4.80;99.90;;;;;;5049080;28;21062;-63
2021/11/10 07:41:51;;;;;;;12.10;6.67;;;4.90;99.90;;;;;;5038012;28;20291;-62
2021/11/10 07:44:18;;;;;;;9.30;6.20;;;5.00;99.90;;;;;;5055369;28;20246;-62
2021/11/10 07:46:51;;;;;;;9.40;6.67;;;5.10;99.90;;;;;;5064111;28;20321;-63
2021/11/10 07:49:19;;;;;;;9.87;6.10;;;5.20;99.90;;;;;;5058850;28;20298;-63
2021/11/10 07:51:46;;;;;;;14.43;7.50;;;5.30;99.90;;;;;;5071280;28;20218;-62
2021/11/10 07:54:13;;;;;;;14.80;8.13;;;5.50;99.90;;;;;;5065662;28;20198;-62
2021/11/10 07:56:40;;;;;;;14.33;7.17;;;5.60;99.90;;;;;;5044674;28;20225;-63
2021/11/10 07:59:08;;;;;;;16.77;8.57;;;5.80;99.90;;;;;;5055688;28;20199;-62
2021/11/10 08:01:35;;;;;;;15.17;9.27;;;5.90;99.90;;;;;;5071765;28;20202;-63
2021/11/10 08:04:03;;;;;;;14.87;9.07;;;6.10;99.90;;;;;;5059550;28;20218;-62
2021/11/10 08:06:30;;;;;;;13.03;7.63;;;6.30;99.90;;;;;;5062585;28;20627;-62
2021/11/10 08:08:57;;;;;;;16.93;8.23;;;6.30;99.90;;;;;;5061249;28;20214;-61
2021/11/10 08:11:24;;;;;;;15.80;8.67;;;6.50;99.90;;;;;;5058454;28;20214;-62
2021/11/10 08:13:52;;;;;;;16.93;8.77;;;6.60;99.90;;;;;;5045082;28;20284;-62
2021/11/10 08:16:20;;;;;;;12.83;8.13;;;6.70;99.90;;;;;;5060948;28;20221;-63
2021/11/10 08:18:47;;;;;;;15.70;8.80;;;6.80;99.90;;;;;;5069559;28;20209;-62
2021/11/10 08:21:13;;;;;;;16.13;7.83;;;6.80;99.90;;;;;;5066251;28;20183;-62
2021/11/10 08:23:40;;;;;;;15.40;9.07;;;6.90;99.90;;;;;;5066648;28;20580;-62
2021/11/10 08:26:07;;;;;;;15.03;8.33;;;7.00;99.90;;;;;;5051625;28;20219;-62
2021/11/10 08:28:34;;;;;;;16.40;8.53;;;7.00;99.90;;;;;;5045005;28;20198;-62
2021/11/10 08:31:01;;;;;;;13.73;7.97;;;7.10;99.90;;;;;;5051485;28;20203;-62
2021/11/10 08:33:30;;;;;;;11.13;6.83;;;7.20;99.90;;;;;;5064150;28;20995;-62
2021/11/10 08:35:57;;;;;;;10.33;7.90;;;7.20;99.90;;;;;;5064501;28;21027;-61
2021/11/10 08:38:25;;;;;;;13.60;7.40;;;7.30;99.90;;;;;;5065829;28;20231;-62
2021/11/10 08:40:52;;;;;;;10.50;7.27;;;7.40;99.90;;;;;;5062485;28;20202;-63
2021/11/10 08:43:19;;;;;;;12.67;8.00;;;7.50;99.90;;;;;;5043699;28;20217;-63
2021/11/10 08:45:48;;;;;;;9.00;7.50;;;7.60;99.90;;;;;;5055037;28;20227;-62
2021/11/10 08:48:16;;;;;;;14.20;8.83;;;7.70;99.90;;;;;;5056040;28;20899;-62
2021/11/10 08:50:46;;;;;;;18.53;9.20;;;8.00;99.90;;;;;;5064840;28;20663;-63
2021/11/10 08:53:17;;;;;;;10.33;6.83;;;8.20;99.90;;;;;;5051669;28;20195;-63
2021/11/10 08:55:45;;;;;;;14.87;8.00;;;8.30;99.90;;;;;;5056172;28;20225;-62
2021/11/10 08:58:11;;;;;;;10.43;7.03;;;8.30;99.90;;;;;;5055938;28;20203;-62
2021/11/10 09:00:38;;;;;;;12.67;7.20;;;8.40;99.90;;;;;;5049952;28;20206;-62
2021/11/10 09:03:05;;;;;;;10.60;7.20;;;8.40;99.90;;;;;;5054303;28;20826;-62
2021/11/10 09:05:33;;;;;;;13.07;7.17;;;8.50;99.90;;;;;;5059442;28;20607;-62
2021/11/10 09:08:01;;;;;;;10.67;6.90;;;8.60;99.90;;;;;;5063917;28;20205;-62
2021/11/10 09:10:28;;;;;;;11.67;7.27;;;8.60;99.90;;;;;;5057520;28;20645;-62
2021/11/10 09:12:55;;;;;;;9.83;6.43;;;8.60;99.90;;;;;;5057443;28;20194;-59
2021/11/10 09:15:22;;;;;;;9.73;7.10;;;8.60;99.90;;;;;;5044131;28;20231;-58
2021/11/10 09:17:50;;;;;;;10.63;6.77;;;8.60;99.90;;;;;;5042491;28;20204;-58
2021/11/10 09:20:19;;;;;;;9.80;7.13;;;8.60;99.90;;;;;;5056351;28;20202;-58
2021/11/10 09:22:47;;;;;;;12.57;7.27;;;8.70;99.90;;;;;;5059479;28;20210;-59
2021/11/10 09:25:17;;;;;;;10.93;6.87;;;8.60;99.90;;;;;;5058820;28;20223;-58
2021/11/10 09:27:45;;;;;;;10.67;6.67;;;8.60;99.90;;;;;;5058280;28;20213;-57
2021/11/10 09:30:17;;;;;;;10.83;7.03;;;8.60;99.90;;;;;;5040750;28;20737;-58
2021/11/10 09:32:47;;;;;;;10.53;6.70;;;8.60;99.90;;;;;;5057207;28;20213;-57
2021/11/10 09:35:16;;;;;;;11.73;7.13;;;8.60;99.90;;;;;;5052773;28;21043;-58
2021/11/10 09:37:43;;;;;;;12.77;7.23;;;8.70;99.90;;;;;;5052859;28;20269;-58
2021/11/10 09:40:13;;;;;;;14.27;7.47;;;8.70;99.90;;;;;;5055345;28;20913;-58
2021/11/10 09:42:43;;;;;;;13.10;7.73;;;8.70;99.90;;;;;;5059045;28;20198;-58
2021/11/10 09:45:14;;;;;;;13.17;7.33;;;8.70;99.90;;;;;;5051343;28;20222;-58
2021/11/10 09:47:41;;;;;;;12.77;6.23;;;8.80;99.90;;;;;;5036870;28;20207;-57
2021/11/10 09:50:10;;;;;;;9.90;6.70;;;8.80;99.90;;;;;;5056488;28;20783;-58
2021/11/10 09:52:37;;;;;;;9.37;6.97;;;8.90;99.90;;;;;;5047831;28;20195;-58
2021/11/10 09:55:06;;;;;;;9.53;6.73;;;9.00;99.90;;;;;;5055338;28;20210;-58
2021/11/10 09:57:33;;;;;;;7.70;6.47;;;9.00;99.90;;;;;;5060403;28;20210;-57
2021/11/10 10:00:02;;;;;;;14.47;6.83;;;9.20;99.90;;;;;;5053131;28;20202;-57
2021/11/10 10:02:40;;;;;;;8.67;6.20;;;9.30;99.90;;;;;;5047106;28;20545;-57
2021/11/10 10:05:08;;;;;;;9.03;6.27;;;9.40;99.90;;;;;;5050699;28;20215;-58
2021/11/10 10:07:35;;;;;;;7.20;5.40;;;9.50;99.90;;;;;;5056752;28;20206;-58
2021/11/10 10:10:02;;;;;;;9.50;6.00;;;9.60;99.90;;;;;;5050632;28;20218;-57
2021/11/10 10:12:28;;;;;;;15.37;5.90;;;9.70;99.90;;;;;;5057413;28;20191;-58
2021/11/10 10:14:55;;;;;;;10.53;5.73;;;9.70;99.90;;;;;;5055062;28;20222;-58
2021/11/10 10:17:36;;;;;;;6.90;5.17;;;9.80;99.90;;;;;;5043629;28;20229;-57
2021/11/10 10:20:05;;;;;;;11.40;6.97;;;9.90;99.90;;;;;;5051207;28;20198;-57
2021/11/10 10:22:31;;;;;;;13.00;6.17;;;9.90;99.90;;;;;;5052766;28;20536;-58
2021/11/10 10:24:59;;;;;;;9.80;6.33;;;9.90;99.90;;;;;;5048798;28;20218;-58
2021/11/10 10:27:30;;;;;;;9.43;6.73;;;9.90;99.90;;;;;;5058460;28;20203;-57
2021/11/10 10:30:23;;;;;;;11.27;7.07;;;10.00;99.90;;;;;;5058278;28;20199;-58
2021/11/10 10:32:54;;;;;;;9.47;5.80;;;10.00;99.90;;;;;;5050149;28;20195;-58
2021/11/10 10:35:38;;;;;;;10.80;5.80;;;10.00;99.90;;;;;;5055084;28;20230;-57
2021/11/10 10:38:07;;;;;;;11.30;6.80;;;10.00;99.90;;;;;;5052362;28;20934;-58
2021/11/10 10:40:34;;;;;;;13.67;8.27;;;10.00;99.90;;;;;;5064348;28;20564;-57
2021/11/10 10:43:02;;;;;;;10.60;7.20;;;10.10;99.90;;;;;;5061023;28;20198;-58
2021/11/10 10:45:33;;;;;;;6.33;4.93;;;10.10;99.90;;;;;;5053098;28;20229;-58
2021/11/10 10:48:02;;;;;;;6.67;5.10;;;10.10;99.90;;;;;;5060328;28;20224;-57
2021/11/10 10:50:35;;;;;;;8.57;4.50;;;10.20;99.90;;;;;;5042626;28;20199;-58
2021/11/10 10:53:02;;;;;;;12.17;6.53;;;10.20;99.90;;;;;;5065217;28;20206;-55
2021/11/10 10:55:35;;;;;;;8.20;5.33;;;10.20;99.90;;;;;;5061023;28;20218;-60
2021/11/10 10:58:03;;;;;;;9.63;6.20;;;10.30;99.90;;;;;;5064635;28;20194;-57
2021/11/10 11:00:31;;;;;;;10.27;6.20;;;;;;;;;;5056045;28;20857;-58
2021/11/10 11:03:24;;;;;;;8.53;5.10;;;10.40;99.90;;;;;;5051113;28;20206;-58
2021/11/10 11:05:51;;;;;;;7.87;6.03;;;10.40;99.90;;;;;;5038317;28;20249;-58
2021/11/10 11:08:33;;;;;;;6.83;6.03;;;10.50;99.90;;;;;;5059516;28;20567;-57
2021/11/10 11:11:02;;;;;;;12.20;6.43;;;10.50;99.90;;;;;;5056217;28;20260;-58
2021/11/10 11:13:46;;;;;;;13.20;6.33;;;10.50;99.90;;;;;;5064765;28;20199;-58
2021/11/10 11:16:12;;;;;;;9.47;5.60;;;10.50;99.90;;;;;;5064129;28;20237;-57
2021/11/10 11:18:40;;;;;;;6.90;4.90;;;10.60;99.90;;;;;;5056614;28;20213;-58
2021/11/10 11:21:24;;;;;;;13.50;6.30;;;10.60;99.90;;;;;;5048537;28;20195;-58
2021/11/10 11:23:52;;;;;;;9.50;6.47;;;10.60;99.90;;;;;;5053050;28;20281;-58
2021/11/10 11:26:34;;;;;;;15.20;7.93;;;10.60;99.90;;;;;;5064515;28;20223;-56
2021/11/10 11:29:17;;;;;;;5.23;4.17;;;10.60;99.90;;;;;;5061154;28;20312;-57
2021/11/10 11:31:44;;;;;;;6.93;4.37;;;10.60;99.90;;;;;;5060241;28;20209;-58
2021/11/10 11:34:12;;;;;;;7.63;4.97;;;10.50;99.90;;;;;;5061492;28;20199;-58
2021/11/10 11:36:47;;;;;;;6.73;4.63;;;10.50;99.90;;;;;;5047856;28;20237;-57
2021/11/10 11:39:14;;;;;;;7.60;5.53;;;10.50;99.90;;;;;;5055199;28;20213;-58
2021/11/10 11:41:41;;;;;;;9.47;4.97;;;10.50;99.90;;;;;;5062384;28;20217;-58
2021/11/10 11:44:08;;;;;;;6.70;4.70;;;10.50;99.90;;;;;;5058243;28;20193;-58
2021/11/10 11:46:36;;;;;;;9.80;5.53;;;10.40;99.90;;;;;;5062804;28;20222;-58
2021/11/10 11:49:03;;;;;;;7.17;5.27;;;10.40;99.90;;;;;;5056421;28;20206;-58
2021/11/10 11:51:32;;;;;;;5.70;5.03;;;10.40;99.90;;;;;;5049958;28;20295;-58
2021/11/10 11:53:59;;;;;;;8.90;5.13;;;10.40;99.90;;;;;;5060416;28;20182;-58
2021/11/10 11:56:27;;;;;;;6.43;4.93;;;10.40;99.90;;;;;;5058658;28;20218;-58
2021/11/10 11:58:56;;;;;;;6.93;4.70;;;10.50;99.90;;;;;;5059900;28;20202;-58
2021/11/10 12:01:26;;;;;;;6.30;4.33;;;10.50;99.90;;;;;;5063018;28;20556;-58
2021/11/10 12:03:57;;;;;;;12.90;6.73;;;10.50;99.90;;;;;;5047150;28;20206;-58
2021/11/10 12:06:25;;;;;;;9.83;6.30;;;10.40;99.90;;;;;;5063807;28;20374;-57
2021/11/10 12:08:54;;;;;;;14.47;6.97;;;10.50;99.90;;;;;;5044161;28;20867;-56
2021/11/10 12:11:40;;;;;;;8.80;5.23;;;10.50;99.90;;;;;;5055958;28;20203;-57
2021/11/10 12:14:08;;;;;;;5.90;4.13;;;10.50;99.90;;;;;;5056958;28;20205;-58
2021/11/10 12:16:45;;;;;;;6.80;4.43;;;10.50;99.90;;;;;;5062731;28;20219;-58
2021/11/10 12:19:18;;;;;;;6.67;4.87;;;10.40;99.90;;;;;;5057259;28;20210;-58
2021/11/10 12:21:47;;;;;;;11.07;5.73;;;10.40;99.90;;;;;;5050194;28;20229;-58
2021/11/10 12:24:21;;;;;;;8.17;6.03;;;10.50;99.90;;;;;;5054002;28;20207;-58
2021/11/10 12:27:17;;;;;;;11.63;6.47;;;10.50;99.90;;;;;;5055702;28;20228;-60
2021/11/10 12:29:51;;;;;;;10.10;6.07;;;10.50;99.90;;;;;;5055580;28;20222;-58
2021/11/10 12:32:18;;;;;;;10.73;6.60;;;10.50;99.90;;;;;;5059195;28;20213;-58
2021/11/10 12:34:49;;;;;;;9.73;5.67;;;10.50;99.90;;;;;;5055772;28;20207;-55
2021/11/10 12:37:28;;;;;;;9.77;6.20;;;10.50;99.90;;;;;;5047655;28;20675;-54
2021/11/10 12:40:13;;;;;;;9.57;5.40;;;10.50;99.90;;;;;;5057986;28;20938;-55
2021/11/10 12:43:14;;;;;;;8.70;5.37;;;10.50;99.90;;;;;;5052138;28;20571;-55
2021/11/10 12:45:43;;;;;;;5.50;4.33;;;10.50;99.90;;;;;;5066113;28;20218;-56
2021/11/10 12:48:27;;;;;;;7.97;5.20;;;10.50;99.90;;;;;;5065299;28;20205;-53
2021/11/10 12:50:55;;;;;;;14.10;5.37;;;10.50;99.90;;;;;;5048484;28;20201;-56
2021/11/10 12:53:36;;;;;;;7.73;5.93;;;10.50;99.90;;;;;;5049364;28;20217;-56
2021/11/10 12:56:06;;;;;;;11.47;7.03;;;10.40;99.90;;;;;;5064327;28;20214;-56
2021/11/10 12:58:34;;;;;;;8.53;6.03;;;10.40;99.90;;;;;;5065536;28;20238;-56
2021/11/10 13:01:07;;;;;;;10.20;6.93;;;10.30;99.90;;;;;;5061101;28;20199;-56